sensor_id;sensor_type;location;lat;lon;timestamp;temperature;humidity
13976;DHT22;7062;49.792;9.946;2024-02-26T00:02:21;9.00;99.90
13976;DHT22;7062;49.792;9.946;2024-02-26T00:04:47;9.00;99.90
13976;DHT22;7062;49.792;9.946;2024-02-26T00:07:12;9.10;99.90
13976;DHT22;7062;49.792;9.946;2024-02-26T00:09:38;9.20;99.90
13976;DHT22;7062;49.792;9.946;2024-02-26T00:12:04;9.20;99.90
13976;DHT22;7062;49.792;9.946;2024-02-26T00:14:31;9.30;99.90
13976;DHT22;7062;49.792;9.946;2024-02-26T00:16:56;9.20;99.90
13976;DHT22;7062;49.792;9.946;2024-02-26T00:19:22;9.30;99.90
13976;DHT22;7062;49.792;9.946;2024-02-26T00:21:48;9.30;99.90
13976;DHT22;7062;49.792;9.946;2024-02-26T00:24:13;9.20;99.90
13976;DHT22;7062;49.792;9.946;2024-02-26T00:26:39;9.10;99.90
13976;DHT22;7062;49.792;9.946;2024-02-26T00:29:05;9.10;99.90
13976;DHT22;7062;49.792;9.946;2024-02-26T00:31:31;9.00;99.90
13976;DHT22;7062;49.792;9.946;2024-02-26T00:33:56;8.90;99.90
13976;DHT22;7062;49.792;9.946;2024-02-26T00:36:22;8.80;99.90
13976;DHT22;7062;49.792;9.946;2024-02-26T00:38:48;8.80;99.90
13976;DHT22;7062;49.792;9.946;2024-02-26T00:41:20;8.90;99.90
13976;DHT22;7062;49.792;9.946;2024-02-26T00:43:46;8.70;99.90
13976;DHT22;7062;49.792;9.946;2024-02-26T00:46:12;8.80;99.90
13976;DHT22;7062;49.792;9.946;2024-02-26T00:48:38;8.80;99.90
13976;DHT22;7062;49.792;9.946;2024-02-26T00:51:04;8.80;99.90
13976;DHT22;7062;49.792;9.946;2024-02-26T00:53:34;8.70;99.90
13976;DHT22;7062;49.792;9.946;2024-02-26T00:56:00;8.50;99.90
13976;DHT22;7062;49.792;9.946;2024-02-26T00:58:26;8.40;99.90
13976;DHT22;7062;49.792;9.946;2024-02-26T01:00:51;8.40;99.90
13976;DHT22;7062;49.792;9.946;2024-02-26T01:03:17;8.50;99.90
13976;DHT22;7062;49.792;9.946;2024-02-26T01:05:43;8.40;99.90
13976;DHT22;7062;49.792;9.946;2024-02-26T01:08:09;8.40;99.90
13976;DHT22;7062;49.792;9.946;2024-02-26T01:10:35;8.40;99.90
13976;DHT22;7062;49.792;9.946;2024-02-26T01:13:01;8.40;99.90
13976;DHT22;7062;49.792;9.946;2024-02-26T01:15:26;8.50;99.90
13976;DHT22;7062;49.792;9.946;2024-02-26T01:17:52;8.60;99.90
13976;DHT22;7062;49.792;9.946;2024-02-26T01:20:18;8.70;99.90
13976;DHT22;7062;49.792;9.946;2024-02-26T01:22:44;8.80;99.90
13976;DHT22;7062;49.792;9.946;2024-02-26T01:25:10;8.80;99.90
13976;DHT22;7062;49.792;9.946;2024-02-26T01:27:36;8.70;99.90
13976;DHT22;7062;49.792;9.946;2024-02-26T01:30:03;8.80;99.90
13976;DHT22;7062;49.792;9.946;2024-02-26T01:32:29;8.80;99.90
13976;DHT22;7062;49.792;9.946;2024-02-26T01:34:55;8.70;99.90
13976;DHT22;7062;49.792;9.946;2024-02-26T01:37:21;8.60;99.90
13976;DHT22;7062;49.792;9.946;2024-02-26T01:39:47;8.60;99.90
13976;DHT22;7062;49.792;9.946;2024-02-26T01:42:12;8.40;99.90
13976;DHT22;7062;49.792;9.946;2024-02-26T01:44:38;8.50;99.90
13976;DHT22;7062;49.792;9.946;2024-02-26T01:47:05;8.50;99.90
13976;DHT22;7062;49.792;9.946;2024-02-26T01:49:34;8.70;99.90
13976;DHT22;7062;49.792;9.946;2024-02-26T01:52:01;8.80;99.90
13976;DHT22;7062;49.792;9.946;2024-02-26T01:54:29;8.70;99.90
13976;DHT22;7062;49.792;9.946;2024-02-26T01:56:55;8.70;99.90
13976;DHT22;7062;49.792;9.946;2024-02-26T01:59:21;8.60;99.90
13976;DHT22;7062;49.792;9.946;2024-02-26T02:01:50;8.60;99.90
13976;DHT22;7062;49.792;9.946;2024-02-26T02:04:17;8.70;99.90
13976;DHT22;7062;49.792;9.946;2024-02-26T02:06:45;8.80;99.90
13976;DHT22;7062;49.792;9.946;2024-02-26T02:09:11;8.80;99.90
13976;DHT22;7062;49.792;9.946;2024-02-26T02:11:37;8.80;99.90
13976;DHT22;7062;49.792;9.946;2024-02-26T02:14:03;8.70;99.90
13976;DHT22;7062;49.792;9.946;2024-02-26T02:16:29;8.80;99.90
13976;DHT22;7062;49.792;9.946;2024-02-26T02:18:55;8.80;99.90
13976;DHT22;7062;49.792;9.946;2024-02-26T02:21:20;8.70;99.90
13976;DHT22;7062;49.792;9.946;2024-02-26T02:23:46;8.60;99.90
13976;DHT22;7062;49.792;9.946;2024-02-26T02:26:13;8.60;99.90
13976;DHT22;7062;49.792;9.946;2024-02-26T02:28:40;8.70;99.90
13976;DHT22;7062;49.792;9.946;2024-02-26T02:31:06;8.70;99.90
13976;DHT22;7062;49.792;9.946;2024-02-26T02:33:33;8.80;99.90
13976;DHT22;7062;49.792;9.946;2024-02-26T02:35:59;8.70;99.90
13976;DHT22;7062;49.792;9.946;2024-02-26T02:38:25;8.80;99.90
13976;DHT22;7062;49.792;9.946;2024-02-26T02:40:54;8.70;99.90
13976;DHT22;7062;49.792;9.946;2024-02-26T02:43:20;8.60;99.90
13976;DHT22;7062;49.792;9.946;2024-02-26T02:45:45;8.70;99.90
13976;DHT22;7062;49.792;9.946;2024-02-26T02:48:11;8.70;99.90
13976;DHT22;7062;49.792;9.946;2024-02-26T02:50:37;8.70;99.90
13976;DHT22;7062;49.792;9.946;2024-02-26T02:53:03;8.70;99.90
13976;DHT22;7062;49.792;9.946;2024-02-26T02:55:29;8.70;99.90
13976;DHT22;7062;49.792;9.946;2024-02-26T02:57:54;8.70;99.90
13976;DHT22;7062;49.792;9.946;2024-02-26T03:00:20;8.70;99.90
13976;DHT22;7062;49.792;9.946;2024-02-26T03:02:51;8.80;99.90
13976;DHT22;7062;49.792;9.946;2024-02-26T03:05:17;8.60;99.90
13976;DHT22;7062;49.792;9.946;2024-02-26T03:07:42;8.60;99.90
13976;DHT22;7062;49.792;9.946;2024-02-26T03:10:08;8.70;99.90
13976;DHT22;7062;49.792;9.946;2024-02-26T03:12:34;8.70;99.90
13976;DHT22;7062;49.792;9.946;2024-02-26T03:15:00;8.70;99.90
13976;DHT22;7062;49.792;9.946;2024-02-26T03:17:31;8.60;99.90
13976;DHT22;7062;49.792;9.946;2024-02-26T03:19:56;8.50;99.90
13976;DHT22;7062;49.792;9.946;2024-02-26T03:22:22;8.50;99.90
13976;DHT22;7062;49.792;9.946;2024-02-26T03:24:48;8.30;99.90
13976;DHT22;7062;49.792;9.946;2024-02-26T03:27:13;8.30;99.90
13976;DHT22;7062;49.792;9.946;2024-02-26T03:29:40;8.30;99.90
13976;DHT22;7062;49.792;9.946;2024-02-26T03:32:06;8.30;99.90
13976;DHT22;7062;49.792;9.946;2024-02-26T03:34:33;8.40;99.90
13976;DHT22;7062;49.792;9.946;2024-02-26T03:37:02;8.40;99.90
13976;DHT22;7062;49.792;9.946;2024-02-26T03:39:27;8.50;99.90
13976;DHT22;7062;49.792;9.946;2024-02-26T03:41:53;8.60;99.90
13976;DHT22;7062;49.792;9.946;2024-02-26T03:44:19;8.60;99.90
13976;DHT22;7062;49.792;9.946;2024-02-26T03:46:45;8.60;99.90
13976;DHT22;7062;49.792;9.946;2024-02-26T03:49:11;8.50;99.90
13976;DHT22;7062;49.792;9.946;2024-02-26T03:51:36;8.50;99.90
13976;DHT22;7062;49.792;9.946;2024-02-26T03:54:03;8.40;99.90
13976;DHT22;7062;49.792;9.946;2024-02-26T03:56:28;8.50;99.90
13976;DHT22;7062;49.792;9.946;2024-02-26T03:58:54;8.40;99.90
13976;DHT22;7062;49.792;9.946;2024-02-26T04:01:20;8.40;99.90
13976;DHT22;7062;49.792;9.946;2024-02-26T04:03:45;8.50;99.90
13976;DHT22;7062;49.792;9.946;2024-02-26T04:06:11;8.50;99.90
13976;DHT22;7062;49.792;9.946;2024-02-26T04:08:40;8.60;99.90
13976;DHT22;7062;49.792;9.946;2024-02-26T04:11:06;8.30;99.90
13976;DHT22;7062;49.792;9.946;2024-02-26T04:13:35;8.00;99.90
13976;DHT22;7062;49.792;9.946;2024-02-26T04:16:04;8.10;99.90
13976;DHT22;7062;49.792;9.946;2024-02-26T04:18:29;8.20;99.90
13976;DHT22;7062;49.792;9.946;2024-02-26T04:20:55;8.30;99.90
13976;DHT22;7062;49.792;9.946;2024-02-26T04:23:22;8.10;99.90
13976;DHT22;7062;49.792;9.946;2024-02-26T04:25:47;8.10;99.90
13976;DHT22;7062;49.792;9.946;2024-02-26T04:28:13;8.20;99.90
13976;DHT22;7062;49.792;9.946;2024-02-26T04:30:39;8.30;99.90
13976;DHT22;7062;49.792;9.946;2024-02-26T04:33:05;8.20;99.90
13976;DHT22;7062;49.792;9.946;2024-02-26T04:35:31;8.30;99.90
13976;DHT22;7062;49.792;9.946;2024-02-26T04:37:56;8.40;99.90
13976;DHT22;7062;49.792;9.946;2024-02-26T04:40:22;8.50;99.90
13976;DHT22;7062;49.792;9.946;2024-02-26T04:42:48;8.50;99.90
13976;DHT22;7062;49.792;9.946;2024-02-26T04:45:13;8.60;99.90
13976;DHT22;7062;49.792;9.946;2024-02-26T04:47:39;8.60;99.90
13976;DHT22;7062;49.792;9.946;2024-02-26T04:50:05;8.50;99.90
13976;DHT22;7062;49.792;9.946;2024-02-26T04:52:31;8.40;99.90
13976;DHT22;7062;49.792;9.946;2024-02-26T04:54:56;8.50;99.90
13976;DHT22;7062;49.792;9.946;2024-02-26T04:57:22;8.60;99.90
13976;DHT22;7062;49.792;9.946;2024-02-26T04:59:48;8.60;99.90
13976;DHT22;7062;49.792;9.946;2024-02-26T05:02:13;8.70;99.90
13976;DHT22;7062;49.792;9.946;2024-02-26T05:04:39;8.80;99.90
13976;DHT22;7062;49.792;9.946;2024-02-26T05:07:05;8.90;99.90
13976;DHT22;7062;49.792;9.946;2024-02-26T05:09:31;8.90;99.90
13976;DHT22;7062;49.792;9.946;2024-02-26T05:11:57;8.60;99.90
13976;DHT22;7062;49.792;9.946;2024-02-26T05:14:22;8.50;99.90
13976;DHT22;7062;49.792;9.946;2024-02-26T05:16:48;8.50;99.90
13976;DHT22;7062;49.792;9.946;2024-02-26T05:19:14;8.60;99.90
13976;DHT22;7062;49.792;9.946;2024-02-26T05:21:39;8.60;99.90
13976;DHT22;7062;49.792;9.946;2024-02-26T05:24:06;8.80;99.90
13976;DHT22;7062;49.792;9.946;2024-02-26T05:26:32;8.80;99.90
13976;DHT22;7062;49.792;9.946;2024-02-26T05:28:57;8.90;99.90
13976;DHT22;7062;49.792;9.946;2024-02-26T05:31:25;8.90;99.90
13976;DHT22;7062;49.792;9.946;2024-02-26T05:33:51;8.90;99.90
13976;DHT22;7062;49.792;9.946;2024-02-26T05:36:21;8.70;99.90
13976;DHT22;7062;49.792;9.946;2024-02-26T05:38:50;8.80;99.90
13976;DHT22;7062;49.792;9.946;2024-02-26T05:41:16;8.70;99.90
13976;DHT22;7062;49.792;9.946;2024-02-26T05:43:45;8.60;99.90
13976;DHT22;7062;49.792;9.946;2024-02-26T05:46:11;8.70;99.90
13976;DHT22;7062;49.792;9.946;2024-02-26T05:48:37;8.70;99.90
13976;DHT22;7062;49.792;9.946;2024-02-26T05:51:02;8.70;99.90
13976;DHT22;7062;49.792;9.946;2024-02-26T05:53:29;8.70;99.90
13976;DHT22;7062;49.792;9.946;2024-02-26T05:55:55;8.70;99.90
13976;DHT22;7062;49.792;9.946;2024-02-26T05:58:20;8.70;99.90
13976;DHT22;7062;49.792;9.946;2024-02-26T06:00:46;8.70;99.90
13976;DHT22;7062;49.792;9.946;2024-02-26T06:03:12;8.80;99.90
13976;DHT22;7062;49.792;9.946;2024-02-26T06:05:37;8.80;99.90
13976;DHT22;7062;49.792;9.946;2024-02-26T06:08:03;8.60;99.90
13976;DHT22;7062;49.792;9.946;2024-02-26T06:10:29;8.70;99.90
13976;DHT22;7062;49.792;9.946;2024-02-26T06:12:54;8.80;99.90
13976;DHT22;7062;49.792;9.946;2024-02-26T06:15:20;8.80;99.90
13976;DHT22;7062;49.792;9.946;2024-02-26T06:17:46;8.80;99.90
13976;DHT22;7062;49.792;9.946;2024-02-26T06:20:11;8.90;99.90
13976;DHT22;7062;49.792;9.946;2024-02-26T06:22:40;8.90;99.90
13976;DHT22;7062;49.792;9.946;2024-02-26T06:25:06;8.90;99.90
13976;DHT22;7062;49.792;9.946;2024-02-26T06:27:32;8.90;99.90
13976;DHT22;7062;49.792;9.946;2024-02-26T06:29:57;8.80;99.90
13976;DHT22;7062;49.792;9.946;2024-02-26T06:32:23;8.80;99.90
13976;DHT22;7062;49.792;9.946;2024-02-26T06:34:48;8.70;99.90
13976;DHT22;7062;49.792;9.946;2024-02-26T06:37:14;8.80;99.90
13976;DHT22;7062;49.792;9.946;2024-02-26T06:39:40;8.80;99.90
13976;DHT22;7062;49.792;9.946;2024-02-26T06:42:06;8.80;99.90
13976;DHT22;7062;49.792;9.946;2024-02-26T06:44:32;8.80;99.90
13976;DHT22;7062;49.792;9.946;2024-02-26T06:46:59;8.80;99.90
13976;DHT22;7062;49.792;9.946;2024-02-26T06:49:25;8.90;99.90
13976;DHT22;7062;49.792;9.946;2024-02-26T06:51:51;9.00;99.90
13976;DHT22;7062;49.792;9.946;2024-02-26T06:54:17;9.10;99.90
13976;DHT22;7062;49.792;9.946;2024-02-26T06:56:42;9.10;99.90
13976;DHT22;7062;49.792;9.946;2024-02-26T06:59:08;9.50;99.90
13976;DHT22;7062;49.792;9.946;2024-02-26T07:01:33;9.30;99.90
13976;DHT22;7062;49.792;9.946;2024-02-26T07:03:59;9.30;99.90
13976;DHT22;7062;49.792;9.946;2024-02-26T07:06:27;9.10;99.90
13976;DHT22;7062;49.792;9.946;2024-02-26T07:08:52;9.20;99.90
13976;DHT22;7062;49.792;9.946;2024-02-26T07:11:18;9.10;99.90
13976;DHT22;7062;49.792;9.946;2024-02-26T07:13:45;9.10;99.90
13976;DHT22;7062;49.792;9.946;2024-02-26T07:16:11;9.00;99.90
13976;DHT22;7062;49.792;9.946;2024-02-26T07:18:37;9.10;99.90
13976;DHT22;7062;49.792;9.946;2024-02-26T07:21:03;9.10;99.90
13976;DHT22;7062;49.792;9.946;2024-02-26T07:23:29;9.20;99.90
13976;DHT22;7062;49.792;9.946;2024-02-26T07:25:55;9.30;99.90
13976;DHT22;7062;49.792;9.946;2024-02-26T07:28:20;9.40;99.90
13976;DHT22;7062;49.792;9.946;2024-02-26T07:30:46;9.40;99.90
13976;DHT22;7062;49.792;9.946;2024-02-26T07:33:12;9.50;99.90
13976;DHT22;7062;49.792;9.946;2024-02-26T07:35:38;9.60;99.90
13976;DHT22;7062;49.792;9.946;2024-02-26T07:38:04;9.70;99.90
13976;DHT22;7062;49.792;9.946;2024-02-26T07:40:30;9.70;99.90
13976;DHT22;7062;49.792;9.946;2024-02-26T07:42:56;9.70;99.90
13976;DHT22;7062;49.792;9.946;2024-02-26T07:45:22;9.70;99.90
13976;DHT22;7062;49.792;9.946;2024-02-26T07:47:48;9.80;99.90
13976;DHT22;7062;49.792;9.946;2024-02-26T07:50:13;9.90;99.90
13976;DHT22;7062;49.792;9.946;2024-02-26T07:52:40;9.90;99.90
13976;DHT22;7062;49.792;9.946;2024-02-26T07:55:06;9.90;99.90
13976;DHT22;7062;49.792;9.946;2024-02-26T07:57:35;9.90;99.90
13976;DHT22;7062;49.792;9.946;2024-02-26T08:00:01;10.00;99.90
13976;DHT22;7062;49.792;9.946;2024-02-26T08:02:28;10.00;99.90
13976;DHT22;7062;49.792;9.946;2024-02-26T08:04:53;10.00;99.90
13976;DHT22;7062;49.792;9.946;2024-02-26T08:07:19;10.00;99.90
13976;DHT22;7062;49.792;9.946;2024-02-26T08:09:46;10.10;99.90
13976;DHT22;7062;49.792;9.946;2024-02-26T08:12:12;10.00;99.90
13976;DHT22;7062;49.792;9.946;2024-02-26T08:14:38;10.10;99.90
13976;DHT22;7062;49.792;9.946;2024-02-26T08:17:03;10.20;99.90
13976;DHT22;7062;49.792;9.946;2024-02-26T08:19:29;10.20;99.90
13976;DHT22;7062;49.792;9.946;2024-02-26T08:21:55;10.30;99.90
13976;DHT22;7062;49.792;9.946;2024-02-26T08:24:20;10.20;99.90
13976;DHT22;7062;49.792;9.946;2024-02-26T08:26:46;10.30;99.90
13976;DHT22;7062;49.792;9.946;2024-02-26T08:29:12;10.30;99.90
13976;DHT22;7062;49.792;9.946;2024-02-26T08:31:37;10.20;99.90
13976;DHT22;7062;49.792;9.946;2024-02-26T08:34:04;10.20;99.90
13976;DHT22;7062;49.792;9.946;2024-02-26T08:36:32;10.30;99.90
13976;DHT22;7062;49.792;9.946;2024-02-26T08:38:58;10.40;99.90
13976;DHT22;7062;49.792;9.946;2024-02-26T08:41:24;10.50;99.90
13976;DHT22;7062;49.792;9.946;2024-02-26T08:43:49;10.50;99.90
13976;DHT22;7062;49.792;9.946;2024-02-26T08:46:15;10.40;99.90
13976;DHT22;7062;49.792;9.946;2024-02-26T08:48:41;10.40;99.90
13976;DHT22;7062;49.792;9.946;2024-02-26T08:51:07;10.50;99.90
13976;DHT22;7062;49.792;9.946;2024-02-26T08:53:33;10.70;99.90
13976;DHT22;7062;49.792;9.946;2024-02-26T08:55:59;10.70;99.90
13976;DHT22;7062;49.792;9.946;2024-02-26T08:58:25;10.70;99.90
13976;DHT22;7062;49.792;9.946;2024-02-26T09:00:51;10.60;99.90
13976;DHT22;7062;49.792;9.946;2024-02-26T09:03:17;10.40;99.90
13976;DHT22;7062;49.792;9.946;2024-02-26T09:05:43;10.10;99.90
13976;DHT22;7062;49.792;9.946;2024-02-26T09:08:08;10.00;99.90
13976;DHT22;7062;49.792;9.946;2024-02-26T09:10:34;10.10;99.90
13976;DHT22;7062;49.792;9.946;2024-02-26T09:13:00;10.20;99.90
13976;DHT22;7062;49.792;9.946;2024-02-26T09:15:25;10.10;99.90
13976;DHT22;7062;49.792;9.946;2024-02-26T09:17:51;10.00;99.90
13976;DHT22;7062;49.792;9.946;2024-02-26T09:20:17;10.20;99.90
13976;DHT22;7062;49.792;9.946;2024-02-26T09:22:47;10.40;99.90
13976;DHT22;7062;49.792;9.946;2024-02-26T09:25:13;10.50;99.90
13976;DHT22;7062;49.792;9.946;2024-02-26T09:27:41;10.80;99.90
13976;DHT22;7062;49.792;9.946;2024-02-26T09:30:08;10.90;99.90
13976;DHT22;7062;49.792;9.946;2024-02-26T09:32:33;10.90;99.90
13976;DHT22;7062;49.792;9.946;2024-02-26T09:34:59;11.00;99.90
13976;DHT22;7062;49.792;9.946;2024-02-26T09:37:25;11.20;99.90
13976;DHT22;7062;49.792;9.946;2024-02-26T09:39:50;11.30;99.90
13976;DHT22;7062;49.792;9.946;2024-02-26T09:42:18;11.30;99.90
13976;DHT22;7062;49.792;9.946;2024-02-26T09:44:45;11.30;99.90
13976;DHT22;7062;49.792;9.946;2024-02-26T09:47:12;11.30;99.90
13976;DHT22;7062;49.792;9.946;2024-02-26T09:49:42;11.30;99.90
13976;DHT22;7062;49.792;9.946;2024-02-26T09:52:08;11.40;99.90
13976;DHT22;7062;49.792;9.946;2024-02-26T09:54:35;11.70;99.90
13976;DHT22;7062;49.792;9.946;2024-02-26T09:57:03;12.10;99.90
13976;DHT22;7062;49.792;9.946;2024-02-26T09:59:41;12.40;99.90
13976;DHT22;7062;49.792;9.946;2024-02-26T10:02:13;12.60;99.90
13976;DHT22;7062;49.792;9.946;2024-02-26T10:04:42;12.60;99.90
13976;DHT22;7062;49.792;9.946;2024-02-26T10:07:12;12.60;99.90
13976;DHT22;7062;49.792;9.946;2024-02-26T10:09:39;12.60;99.90
13976;DHT22;7062;49.792;9.946;2024-02-26T10:12:05;12.60;99.90
13976;DHT22;7062;49.792;9.946;2024-02-26T10:14:32;12.70;99.90
13976;DHT22;7062;49.792;9.946;2024-02-26T10:16:59;12.60;99.90
13976;DHT22;7062;49.792;9.946;2024-02-26T10:19:30;12.70;99.90
13976;DHT22;7062;49.792;9.946;2024-02-26T10:21:56;13.00;99.90
13976;DHT22;7062;49.792;9.946;2024-02-26T10:24:23;13.50;99.90
13976;DHT22;7062;49.792;9.946;2024-02-26T10:26:49;13.60;99.90
13976;DHT22;7062;49.792;9.946;2024-02-26T10:29:14;13.80;99.90
13976;DHT22;7062;49.792;9.946;2024-02-26T10:31:43;14.00;99.90
13976;DHT22;7062;49.792;9.946;2024-02-26T10:34:09;14.50;99.90
13976;DHT22;7062;49.792;9.946;2024-02-26T10:36:35;15.00;99.90
13976;DHT22;7062;49.792;9.946;2024-02-26T10:39:05;15.50;99.90
13976;DHT22;7062;49.792;9.946;2024-02-26T10:41:33;15.60;99.90
13976;DHT22;7062;49.792;9.946;2024-02-26T10:43:59;15.50;99.90
13976;DHT22;7062;49.792;9.946;2024-02-26T10:46:25;15.60;99.90
13976;DHT22;7062;49.792;9.946;2024-02-26T10:48:52;15.80;99.90
13976;DHT22;7062;49.792;9.946;2024-02-26T10:51:21;15.60;99.90
13976;DHT22;7062;49.792;9.946;2024-02-26T10:53:48;15.40;99.90
13976;DHT22;7062;49.792;9.946;2024-02-26T10:56:16;15.40;99.90
13976;DHT22;7062;49.792;9.946;2024-02-26T10:58:45;15.40;99.90
13976;DHT22;7062;49.792;9.946;2024-02-26T11:01:12;15.30;99.90
13976;DHT22;7062;49.792;9.946;2024-02-26T11:03:38;15.30;99.90
13976;DHT22;7062;49.792;9.946;2024-02-26T11:06:05;15.30;99.90
13976;DHT22;7062;49.792;9.946;2024-02-26T11:08:31;15.10;99.90
13976;DHT22;7062;49.792;9.946;2024-02-26T11:10:58;15.00;99.90
13976;DHT22;7062;49.792;9.946;2024-02-26T11:13:28;14.60;99.90
13976;DHT22;7062;49.792;9.946;2024-02-26T11:15:56;14.50;99.90
13976;DHT22;7062;49.792;9.946;2024-02-26T11:18:27;14.10;99.90
13976;DHT22;7062;49.792;9.946;2024-02-26T11:20:54;14.00;99.90
13976;DHT22;7062;49.792;9.946;2024-02-26T11:23:23;13.90;99.90
13976;DHT22;7062;49.792;9.946;2024-02-26T11:25:53;13.70;99.90
13976;DHT22;7062;49.792;9.946;2024-02-26T11:28:21;13.80;99.90
13976;DHT22;7062;49.792;9.946;2024-02-26T11:30:48;13.70;99.90
13976;DHT22;7062;49.792;9.946;2024-02-26T11:33:15;13.60;99.90
13976;DHT22;7062;49.792;9.946;2024-02-26T11:35:41;13.90;99.90
13976;DHT22;7062;49.792;9.946;2024-02-26T11:38:07;13.90;99.90
13976;DHT22;7062;49.792;9.946;2024-02-26T11:40:37;13.90;99.90
13976;DHT22;7062;49.792;9.946;2024-02-26T11:43:06;13.80;99.90
13976;DHT22;7062;49.792;9.946;2024-02-26T11:45:47;14.00;99.90
13976;DHT22;7062;49.792;9.946;2024-02-26T11:48:16;13.70;99.90
13976;DHT22;7062;49.792;9.946;2024-02-26T11:50:48;13.50;99.90
13976;DHT22;7062;49.792;9.946;2024-02-26T11:53:28;13.50;99.90
13976;DHT22;7062;49.792;9.946;2024-02-26T11:59:03;13.70;99.90
13976;DHT22;7062;49.792;9.946;2024-02-26T12:01:54;14.00;99.90
13976;DHT22;7062;49.792;9.946;2024-02-26T12:04:23;14.40;99.90
13976;DHT22;7062;49.792;9.946;2024-02-26T12:06:52;14.50;99.90
13976;DHT22;7062;49.792;9.946;2024-02-26T12:09:39;14.70;99.90
13976;DHT22;7062;49.792;9.946;2024-02-26T12:12:17;14.80;99.90
13976;DHT22;7062;49.792;9.946;2024-02-26T12:14:53;15.00;99.90
13976;DHT22;7062;49.792;9.946;2024-02-26T12:17:23;15.20;99.90
13976;DHT22;7062;49.792;9.946;2024-02-26T12:19:49;15.40;99.90
13976;DHT22;7062;49.792;9.946;2024-02-26T12:22:16;15.40;99.90
13976;DHT22;7062;49.792;9.946;2024-02-26T12:24:44;15.30;99.90
13976;DHT22;7062;49.792;9.946;2024-02-26T12:27:10;15.10;99.90
13976;DHT22;7062;49.792;9.946;2024-02-26T12:29:36;14.80;99.90
13976;DHT22;7062;49.792;9.946;2024-02-26T12:32:03;14.50;99.90
13976;DHT22;7062;49.792;9.946;2024-02-26T12:34:29;14.30;99.90
13976;DHT22;7062;49.792;9.946;2024-02-26T12:36:55;14.20;99.90
13976;DHT22;7062;49.792;9.946;2024-02-26T12:39:21;14.20;99.90
13976;DHT22;7062;49.792;9.946;2024-02-26T12:41:47;14.40;99.90
13976;DHT22;7062;49.792;9.946;2024-02-26T12:44:25;14.40;99.90
13976;DHT22;7062;49.792;9.946;2024-02-26T12:46:51;14.60;99.90
13976;DHT22;7062;49.792;9.946;2024-02-26T12:49:17;15.00;99.90
13976;DHT22;7062;49.792;9.946;2024-02-26T12:51:44;15.30;99.90
13976;DHT22;7062;49.792;9.946;2024-02-26T12:54:11;15.30;99.90
13976;DHT22;7062;49.792;9.946;2024-02-26T12:56:37;15.40;99.90
13976;DHT22;7062;49.792;9.946;2024-02-26T12:59:03;15.30;99.90
13976;DHT22;7062;49.792;9.946;2024-02-26T13:01:29;15.20;99.90
13976;DHT22;7062;49.792;9.946;2024-02-26T13:03:56;15.00;99.90
13976;DHT22;7062;49.792;9.946;2024-02-26T13:06:22;15.00;99.90
13976;DHT22;7062;49.792;9.946;2024-02-26T13:08:48;15.10;99.90
13976;DHT22;7062;49.792;9.946;2024-02-26T13:11:14;15.20;99.90
13976;DHT22;7062;49.792;9.946;2024-02-26T13:13:40;15.40;99.90
13976;DHT22;7062;49.792;9.946;2024-02-26T13:16:07;15.70;99.90
13976;DHT22;7062;49.792;9.946;2024-02-26T13:18:34;15.80;99.90
13976;DHT22;7062;49.792;9.946;2024-02-26T13:21:13;16.00;99.90
13976;DHT22;7062;49.792;9.946;2024-02-26T13:23:40;16.20;99.90
13976;DHT22;7062;49.792;9.946;2024-02-26T13:26:07;16.70;99.90
13976;DHT22;7062;49.792;9.946;2024-02-26T13:28:33;17.20;99.90
13976;DHT22;7062;49.792;9.946;2024-02-26T13:31:00;17.60;99.90
13976;DHT22;7062;49.792;9.946;2024-02-26T13:33:28;18.00;99.90
13976;DHT22;7062;49.792;9.946;2024-02-26T13:35:55;18.50;99.90
13976;DHT22;7062;49.792;9.946;2024-02-26T13:38:21;18.60;99.90
13976;DHT22;7062;49.792;9.946;2024-02-26T13:40:47;19.20;99.90
13976;DHT22;7062;49.792;9.946;2024-02-26T13:43:13;19.50;99.90
13976;DHT22;7062;49.792;9.946;2024-02-26T13:45:39;20.00;99.60
13976;DHT22;7062;49.792;9.946;2024-02-26T13:48:07;20.30;99.20
13976;DHT22;7062;49.792;9.946;2024-02-26T13:50:33;20.70;98.40
13976;DHT22;7062;49.792;9.946;2024-02-26T13:52:59;20.90;97.60
13976;DHT22;7062;49.792;9.946;2024-02-26T13:55:28;20.70;97.10
13976;DHT22;7062;49.792;9.946;2024-02-26T13:57:56;20.50;97.50
13976;DHT22;7062;49.792;9.946;2024-02-26T14:00:22;20.40;97.30
13976;DHT22;7062;49.792;9.946;2024-02-26T14:02:48;19.90;97.30
13976;DHT22;7062;49.792;9.946;2024-02-26T14:05:14;19.50;97.80
13976;DHT22;7062;49.792;9.946;2024-02-26T14:07:40;18.80;98.60
13976;DHT22;7062;49.792;9.946;2024-02-26T14:10:07;18.60;98.80
13976;DHT22;7062;49.792;9.946;2024-02-26T14:12:32;18.50;99.00
13976;DHT22;7062;49.792;9.946;2024-02-26T14:14:58;18.50;98.70
13976;DHT22;7062;49.792;9.946;2024-02-26T14:17:26;18.60;99.10
13976;DHT22;7062;49.792;9.946;2024-02-26T14:19:52;18.40;98.40
13976;DHT22;7062;49.792;9.946;2024-02-26T14:22:17;17.90;98.50
13976;DHT22;7062;49.792;9.946;2024-02-26T14:24:43;17.90;99.00
13976;DHT22;7062;49.792;9.946;2024-02-26T14:27:11;17.90;99.20
13976;DHT22;7062;49.792;9.946;2024-02-26T14:29:39;18.20;99.00
13976;DHT22;7062;49.792;9.946;2024-02-26T14:32:07;18.70;98.60
13976;DHT22;7062;49.792;9.946;2024-02-26T14:34:33;18.80;98.90
13976;DHT22;7062;49.792;9.946;2024-02-26T14:36:58;19.20;97.70
13976;DHT22;7062;49.792;9.946;2024-02-26T14:39:24;19.00;98.10
13976;DHT22;7062;49.792;9.946;2024-02-26T14:41:50;18.60;97.90
13976;DHT22;7062;49.792;9.946;2024-02-26T14:44:15;18.30;98.10
13976;DHT22;7062;49.792;9.946;2024-02-26T14:46:41;18.10;98.30
13976;DHT22;7062;49.792;9.946;2024-02-26T14:49:07;17.70;98.70
13976;DHT22;7062;49.792;9.946;2024-02-26T14:51:33;17.30;99.20
13976;DHT22;7062;49.792;9.946;2024-02-26T14:53:58;17.00;99.70
13976;DHT22;7062;49.792;9.946;2024-02-26T14:56:26;16.80;99.90
13976;DHT22;7062;49.792;9.946;2024-02-26T14:58:51;16.60;99.90
13976;DHT22;7062;49.792;9.946;2024-02-26T15:01:17;16.50;99.90
13976;DHT22;7062;49.792;9.946;2024-02-26T15:03:43;16.30;99.90
13976;DHT22;7062;49.792;9.946;2024-02-26T15:06:09;16.50;99.90
13976;DHT22;7062;49.792;9.946;2024-02-26T15:08:34;16.70;99.90
13976;DHT22;7062;49.792;9.946;2024-02-26T15:11:01;17.30;99.90
13976;DHT22;7062;49.792;9.946;2024-02-26T15:13:26;17.80;99.60
13976;DHT22;7062;49.792;9.946;2024-02-26T15:15:52;17.90;98.90
13976;DHT22;7062;49.792;9.946;2024-02-26T15:18:18;18.20;98.80
13976;DHT22;7062;49.792;9.946;2024-02-26T15:20:44;18.90;98.30
13976;DHT22;7062;49.792;9.946;2024-02-26T15:23:11;19.10;97.70
13976;DHT22;7062;49.792;9.946;2024-02-26T15:25:37;19.00;97.50
13976;DHT22;7062;49.792;9.946;2024-02-26T15:28:04;18.80;97.40
13976;DHT22;7062;49.792;9.946;2024-02-26T15:30:31;18.70;97.80
13976;DHT22;7062;49.792;9.946;2024-02-26T15:32:58;18.40;98.10
13976;DHT22;7062;49.792;9.946;2024-02-26T15:35:25;18.10;98.10
13976;DHT22;7062;49.792;9.946;2024-02-26T15:37:51;17.80;98.60
13976;DHT22;7062;49.792;9.946;2024-02-26T15:40:17;17.50;98.80
13976;DHT22;7062;49.792;9.946;2024-02-26T15:42:42;17.20;99.40
13976;DHT22;7062;49.792;9.946;2024-02-26T15:45:08;16.70;99.90
13976;DHT22;7062;49.792;9.946;2024-02-26T15:47:34;16.50;99.90
13976;DHT22;7062;49.792;9.946;2024-02-26T15:50:01;16.20;99.90
13976;DHT22;7062;49.792;9.946;2024-02-26T15:52:27;16.10;99.90
13976;DHT22;7062;49.792;9.946;2024-02-26T15:54:54;16.10;99.90